createdAt,value
2022-12-11T00:01:20.586Z,98390.22
2022-12-11T00:04:23.418Z,98373.19
2022-12-11T00:07:26.294Z,98362.22
2022-12-11T00:10:30.230Z,98365.69
2022-12-11T00:13:35.613Z,98357.72
2022-12-11T00:16:38.147Z,98349.47
2022-12-11T00:19:40.411Z,98349.31
2022-12-11T00:22:42.970Z,98351.34
2022-12-11T00:25:47.590Z,98346.75
2022-12-11T00:28:54.426Z,98346.28
2022-12-11T00:31:56.770Z,98348.63
2022-12-11T00:34:59.340Z,98349.56
2022-12-11T00:38:01.576Z,98358.25
2022-12-11T00:41:04.185Z,98363.84
2022-12-11T00:44:06.451Z,98347.53
2022-12-11T00:47:09.001Z,98343.72
2022-12-11T00:50:12.279Z,98348.06
2022-12-11T00:53:14.971Z,98346.97
2022-12-11T00:56:20.397Z,98353.28
2022-12-11T00:59:22.936Z,98357.53
2022-12-11T01:02:27.154Z,98356.34
2022-12-11T01:05:31.825Z,98348.09
2022-12-11T01:08:38.495Z,98360.00
2022-12-11T01:11:43.278Z,98346.87
2022-12-11T01:14:45.730Z,98351.03
2022-12-11T01:17:48.285Z,98352.88
2022-12-11T01:20:50.548Z,98376.50
2022-12-11T01:23:53.341Z,98370.59
2022-12-11T01:26:55.579Z,98364.38
2022-12-11T01:29:58.209Z,98354.31
2022-12-11T01:33:00.949Z,98363.69
2022-12-11T01:36:15.078Z,98363.84
2022-12-11T01:39:17.379Z,98368.16
2022-12-11T01:42:20.733Z,98373.22
2022-12-11T01:45:26.614Z,98374.84
2022-12-11T01:48:32.204Z,98367.53
2022-12-11T01:51:41.643Z,98363.84
2022-12-11T01:54:44.694Z,98367.81
2022-12-11T01:57:50.026Z,98362.00
2022-12-11T02:00:53.518Z,98372.72
2022-12-11T02:03:57.037Z,98372.88
2022-12-11T02:06:59.569Z,98380.22
2022-12-11T02:10:01.880Z,98377.56
2022-12-11T02:13:13.010Z,98377.44
2022-12-11T02:16:25.733Z,98374.78
2022-12-11T02:19:55.973Z,98371.69
2022-12-11T02:23:13.319Z,98365.94
2022-12-11T02:26:34.556Z,98376.69
2022-12-11T02:29:45.523Z,98382.78
2022-12-11T02:32:55.405Z,98364.19
2022-12-11T02:35:58.714Z,98372.88
2022-12-11T02:39:03.087Z,98384.06
2022-12-11T02:42:08.187Z,98361.31
2022-12-11T02:45:12.704Z,98370.03
2022-12-11T02:48:17.269Z,98355.81
2022-12-11T02:51:25.357Z,98364.56
2022-12-11T02:54:31.753Z,98359.22
2022-12-11T02:57:58.211Z,98364.94
2022-12-11T03:01:00.612Z,98359.50
2022-12-11T03:04:03.153Z,98352.53
2022-12-11T03:07:13.300Z,98359.31
2022-12-11T03:10:21.595Z,98354.25
2022-12-11T03:13:24.779Z,98357.63
2022-12-11T03:16:36.817Z,98353.84
2022-12-11T03:19:55.572Z,98353.22
2022-12-11T03:23:21.693Z,98358.69
2022-12-11T03:26:24.797Z,98354.13
2022-12-11T03:29:35.254Z,98353.75
2022-12-11T03:32:49.280Z,98352.13
2022-12-11T03:35:56.980Z,98361.19
2022-12-11T03:39:07.300Z,98354.44
2022-12-11T03:42:13.128Z,98348.75
2022-12-11T03:45:18.113Z,98351.62
2022-12-11T03:48:21.490Z,98343.03
2022-12-11T03:51:24.386Z,98361.56
2022-12-11T03:54:27.679Z,98353.56
2022-12-11T03:57:35.154Z,98348.38
2022-12-11T04:00:38.393Z,98348.91
2022-12-11T04:03:40.898Z,98349.50
2022-12-11T04:06:43.222Z,98357.34
2022-12-11T04:09:45.655Z,98363.81
2022-12-11T04:12:47.901Z,98355.50
2022-12-11T04:15:50.461Z,98351.28
2022-12-11T04:19:11.387Z,98367.94
2022-12-11T04:22:34.290Z,98361.66
2022-12-11T04:25:36.577Z,98358.91
2022-12-11T04:28:40.146Z,98345.41
2022-12-11T04:31:42.435Z,98367.06
2022-12-11T04:34:45.035Z,98375.78
2022-12-11T04:37:47.513Z,98386.00
2022-12-11T04:40:50.073Z,98379.78
2022-12-11T04:43:52.349Z,98376.44
2022-12-11T04:46:54.832Z,98385.84
2022-12-11T04:49:57.081Z,98402.53
2022-12-11T04:52:59.637Z,98406.38
2022-12-11T04:56:04.979Z,98416.16
2022-12-11T04:59:07.533Z,98412.91
2022-12-11T05:02:09.728Z,98425.44
2022-12-11T05:05:13.205Z,98408.44
2022-12-11T05:08:15.708Z,98424.84
2022-12-11T05:11:18.277Z,98427.38
2022-12-11T05:14:21.015Z,98438.25
2022-12-11T05:17:23.676Z,98447.22
2022-12-11T05:20:25.899Z,98441.81
2022-12-11T05:23:29.782Z,98435.41
2022-12-11T05:26:32.014Z,98440.91
2022-12-11T05:29:34.452Z,98455.94
2022-12-11T05:32:36.703Z,98458.16
2022-12-11T05:35:39.571Z,98442.94
2022-12-11T05:38:41.860Z,98444.69
2022-12-11T05:41:44.487Z,98436.53
2022-12-11T05:44:46.869Z,98438.44
2022-12-11T05:47:49.424Z,98438.56
2022-12-11T05:50:59.670Z,98438.44
2022-12-11T05:54:03.163Z,98436.06
2022-12-11T05:57:05.423Z,98431.09
2022-12-11T06:00:09.343Z,98434.72
2022-12-11T06:03:11.965Z,98446.72
2022-12-11T06:06:15.179Z,98452.13
2022-12-11T06:09:17.650Z,98451.38
2022-12-11T06:12:19.969Z,98462.72
2022-12-11T06:15:22.466Z,98466.72
2022-12-11T06:18:24.737Z,98478.91
2022-12-11T06:21:30.074Z,98493.03
2022-12-11T06:24:32.391Z,98494.41
2022-12-11T06:27:35.377Z,98506.19
2022-12-11T06:30:39.501Z,98506.19
2022-12-11T06:33:42.595Z,98509.47
2022-12-11T06:36:44.917Z,98517.97
2022-12-11T06:39:47.437Z,98513.53
2022-12-11T06:42:49.757Z,98528.47
2022-12-11T06:45:52.684Z,98522.19
2022-12-11T06:48:54.965Z,98540.31
2022-12-11T06:51:57.475Z,98547.13
2022-12-11T06:54:59.763Z,98541.88
2022-12-11T06:58:02.290Z,98548.91
2022-12-11T07:01:12.638Z,98559.03
2022-12-11T07:04:15.270Z,98578.00
2022-12-11T07:07:17.503Z,98569.28
2022-12-11T07:10:20.352Z,98568.22
2022-12-11T07:13:22.601Z,98580.50
2022-12-11T07:16:25.136Z,98594.91
2022-12-11T07:19:27.627Z,98598.50
2022-12-11T07:22:30.638Z,98601.50
2022-12-11T07:25:32.864Z,98595.41
2022-12-11T07:28:35.898Z,98604.81
2022-12-11T07:31:38.268Z,98609.75
2022-12-11T07:34:41.542Z,98615.28
2022-12-11T07:37:44.894Z,98616.66
2022-12-11T07:40:47.429Z,98616.28
2022-12-11T07:43:49.986Z,98626.63
2022-12-11T07:46:52.447Z,98642.84
2022-12-11T07:49:54.746Z,98648.50
2022-12-11T07:52:57.244Z,98636.66
2022-12-11T07:55:59.933Z,98644.63
2022-12-11T07:59:04.566Z,98643.75
2022-12-11T08:02:06.941Z,98656.12
2022-12-11T08:05:10.086Z,98663.16
2022-12-11T08:08:12.679Z,98666.72
2022-12-11T08:11:15.786Z,98667.00
2022-12-11T08:14:18.543Z,98679.50
2022-12-11T08:17:25.867Z,98686.28
2022-12-11T08:20:31.462Z,98681.34
2022-12-11T08:23:34.636Z,98692.22
2022-12-11T08:26:37.128Z,98696.94
2022-12-11T08:29:39.657Z,98684.97
2022-12-11T08:32:42.071Z,98693.59
2022-12-11T08:35:46.380Z,98689.37
2022-12-11T08:38:49.838Z,98706.59
2022-12-11T08:41:52.344Z,98696.44
2022-12-11T08:44:54.542Z,98699.81
2022-12-11T08:47:58.736Z,98704.53
2022-12-11T08:51:02.127Z,98727.53
2022-12-11T08:54:04.630Z,98740.91
2022-12-11T08:57:06.858Z,98728.25
2022-12-11T09:00:13.164Z,98732.88
2022-12-11T09:03:15.357Z,98746.75
2022-12-11T09:06:20.560Z,98751.47
2022-12-11T09:09:23.211Z,98749.53
2022-12-11T09:12:25.860Z,98752.50
2022-12-11T09:15:28.173Z,98739.06
2022-12-11T09:18:30.836Z,98760.22
2022-12-11T09:21:33.124Z,98760.16
2022-12-11T09:24:36.162Z,98749.72
2022-12-11T09:27:38.419Z,98750.19
2022-12-11T09:30:40.935Z,98753.72
2022-12-11T09:33:43.905Z,98760.03
2022-12-11T09:36:47.193Z,98755.00
2022-12-11T09:39:49.513Z,98752.47
2022-12-11T09:43:03.213Z,98765.53
2022-12-11T09:46:10.777Z,98750.59
2022-12-11T09:49:33.773Z,98748.28
2022-12-11T09:52:47.815Z,98761.75
2022-12-11T09:55:56.441Z,98757.97
2022-12-11T09:59:10.598Z,98759.28
2022-12-11T10:02:22.274Z,98750.31
2022-12-11T10:05:27.520Z,98737.16
2022-12-11T10:08:53.315Z,98733.78
2022-12-11T10:12:20.707Z,98737.09
2022-12-11T10:15:28.879Z,98736.16
2022-12-11T10:18:32.646Z,98722.75
2022-12-11T10:21:40.836Z,98728.31
2022-12-11T10:28:17.141Z,98750.25
2022-12-11T10:31:49.543Z,98746.41
2022-12-11T10:35:01.226Z,98759.03
2022-12-11T10:38:14.992Z,98756.44
2022-12-11T10:41:24.695Z,98758.84
2022-12-11T10:44:29.966Z,98751.47
2022-12-11T10:47:34.072Z,98772.03
2022-12-11T10:50:37.958Z,98777.00
2022-12-11T10:53:40.616Z,98771.44
2022-12-11T10:56:47.283Z,98791.78
2022-12-11T10:59:50.679Z,98792.81
2022-12-11T11:02:53.524Z,98778.84
2022-12-11T11:06:21.837Z,98786.25
2022-12-11T11:09:36.831Z,98788.69
2022-12-11T11:12:44.283Z,98795.97
2022-12-11T11:15:47.309Z,98791.97
2022-12-11T11:18:55.904Z,98791.34
2022-12-11T11:22:14.217Z,98783.16
2022-12-11T11:25:25.333Z,98764.97
2022-12-11T11:28:36.231Z,98772.69
2022-12-11T11:31:38.510Z,98763.34
2022-12-11T11:34:41.553Z,98770.72
2022-12-11T11:37:56.826Z,98773.41
2022-12-11T11:41:36.372Z,98780.25
2022-12-11T11:45:00.084Z,98809.44
2022-12-11T11:48:13.864Z,98802.28
2022-12-11T11:51:39.858Z,98804.94
2022-12-11T11:55:22.705Z,98806.34
2022-12-11T11:58:37.792Z,98815.19
2022-12-11T12:01:42.599Z,98807.72
2022-12-11T12:04:47.239Z,98808.72
2022-12-11T12:08:05.138Z,98827.31
2022-12-11T12:11:39.068Z,98843.47
2022-12-11T12:14:53.664Z,98837.44
2022-12-11T12:17:56.521Z,98848.97
2022-12-11T12:21:04.916Z,98850.31
2022-12-11T12:24:45.954Z,98852.56
2022-12-11T12:28:07.295Z,98851.97
2022-12-11T12:31:41.091Z,98852.78
2022-12-11T12:35:11.370Z,98850.25
2022-12-11T12:38:52.566Z,98847.03
2022-12-11T12:42:07.500Z,98852.47
2022-12-11T12:45:22.598Z,98841.25
2022-12-11T12:48:27.286Z,98842.81
2022-12-11T12:51:30.608Z,98846.50
2022-12-11T12:54:35.589Z,98856.94
2022-12-11T12:57:40.097Z,98867.59
2022-12-11T13:00:43.955Z,98872.56
2022-12-11T13:03:59.374Z,98883.84
2022-12-11T13:07:13.149Z,98891.44
2022-12-11T13:10:34.351Z,98910.13
2022-12-11T13:13:51.591Z,98902.78
2022-12-11T13:17:22.091Z,98913.47
2022-12-11T13:20:30.777Z,98912.16
2022-12-11T13:23:35.252Z,98917.97
2022-12-11T13:26:37.545Z,98930.59
2022-12-11T13:29:42.246Z,98932.16
2022-12-11T13:33:12.654Z,98918.75
2022-12-11T13:36:22.809Z,98926.72
2022-12-11T13:39:30.432Z,98934.19
2022-12-11T13:42:48.020Z,98941.09
2022-12-11T13:45:53.439Z,98941.91
2022-12-11T13:49:01.107Z,98930.94
2022-12-11T13:52:04.974Z,98941.56
2022-12-11T13:55:23.270Z,98946.06
2022-12-11T13:58:26.691Z,98949.91
2022-12-11T14:01:35.001Z,98941.97
2022-12-11T14:04:37.941Z,98960.59
2022-12-11T14:07:49.082Z,98959.25
2022-12-11T14:10:54.038Z,98959.84
2022-12-11T14:13:59.805Z,98978.44
2022-12-11T14:17:02.611Z,98974.06
2022-12-11T14:20:07.526Z,98978.53
2022-12-11T14:23:24.030Z,98988.72
2022-12-11T14:26:31.406Z,98985.41
2022-12-11T14:29:34.076Z,98996.59
2022-12-11T14:32:42.008Z,99007.63
2022-12-11T14:35:46.629Z,99009.31
2022-12-11T14:39:02.077Z,99027.69
2022-12-11T14:42:12.354Z,99016.44
2022-12-11T14:45:36.512Z,99029.09
2022-12-11T14:48:46.270Z,99037.03
2022-12-11T14:51:49.534Z,99019.53
2022-12-11T14:55:03.543Z,99034.59
2022-12-11T14:58:15.142Z,99035.97
2022-12-11T15:01:32.922Z,99038.47
2022-12-11T15:04:35.340Z,99041.19
2022-12-11T15:07:39.027Z,99039.00
2022-12-11T15:10:55.642Z,99042.81
2022-12-11T15:14:01.049Z,99043.38
2022-12-11T15:17:03.486Z,99057.06
2022-12-11T15:20:20.425Z,99052.16
2022-12-11T15:23:22.885Z,99064.72
2022-12-11T15:26:37.448Z,99063.37
2022-12-11T15:29:40.219Z,99056.81
2022-12-11T15:32:42.854Z,99062.81
2022-12-11T15:36:06.594Z,99063.37
2022-12-11T15:39:09.460Z,99069.16
2022-12-11T15:42:15.186Z,99073.25
2022-12-11T15:45:23.384Z,99068.63
2022-12-11T15:48:25.597Z,99066.72
2022-12-11T15:51:29.140Z,99073.00
2022-12-11T15:54:31.353Z,99073.03
2022-12-11T15:57:34.595Z,99085.63
2022-12-11T16:00:36.829Z,99084.81
2022-12-11T16:03:39.435Z,99080.69
2022-12-11T16:06:45.333Z,99079.59
2022-12-11T16:09:48.236Z,99086.72
2022-12-11T16:12:50.590Z,99092.47
2022-12-11T16:15:54.327Z,99088.91
2022-12-11T16:18:56.906Z,99091.09
2022-12-11T16:21:59.496Z,99101.78
2022-12-11T16:25:01.795Z,99107.00
2022-12-11T16:28:05.629Z,99107.25
2022-12-11T16:31:15.657Z,99098.78
2022-12-11T16:34:18.241Z,99100.41
2022-12-11T16:37:20.586Z,99102.03
2022-12-11T16:40:23.381Z,99100.97
2022-12-11T16:43:25.640Z,99110.00
2022-12-11T16:46:28.186Z,99112.47
2022-12-11T16:49:30.985Z,99115.50
2022-12-11T16:52:34.071Z,99119.31
2022-12-11T16:55:36.324Z,99120.69
2022-12-11T16:58:40.536Z,99113.00
2022-12-11T17:01:42.890Z,99117.37
2022-12-11T17:04:52.121Z,99120.12
2022-12-11T17:07:56.221Z,99114.94
2022-12-11T17:10:58.808Z,99113.00
2022-12-11T17:14:01.234Z,99106.72
2022-12-11T17:17:03.788Z,99118.75
2022-12-11T17:20:06.694Z,99118.22
2022-12-11T17:23:10.850Z,99123.44
2022-12-11T17:26:13.125Z,99113.56
2022-12-11T17:29:15.753Z,99115.75
2022-12-11T17:32:18.542Z,99122.63
2022-12-11T17:35:21.065Z,99128.62
2022-12-11T17:38:23.314Z,99128.91
2022-12-11T17:41:25.923Z,99127.81
2022-12-11T17:44:30.700Z,99125.88
2022-12-11T17:47:33.358Z,99122.63
2022-12-11T17:50:41.495Z,99130.53
2022-12-11T17:53:45.003Z,99130.56
2022-12-11T17:56:47.328Z,99130.56
2022-12-11T17:59:49.948Z,99132.75
2022-12-11T18:02:52.299Z,99122.06
2022-12-11T18:05:57.163Z,99132.19
2022-12-11T18:08:59.464Z,99140.41
2022-12-11T18:12:01.984Z,99141.75
2022-12-11T18:15:05.289Z,99143.38
2022-12-11T18:18:08.975Z,99145.31
2022-12-11T18:21:16.559Z,99141.22
2022-12-11T18:24:19.954Z,99145.06
2022-12-11T18:27:22.129Z,99146.69
2022-12-11T18:30:26.104Z,99153.00
2022-12-11T18:33:28.973Z,99151.06
2022-12-11T18:36:32.597Z,99160.91
2022-12-11T18:39:35.330Z,99161.72
2022-12-11T18:42:38.364Z,99169.09
2022-12-11T18:45:42.031Z,99166.09
2022-12-11T18:48:45.763Z,99169.66
2022-12-11T18:51:48.258Z,99174.00
2022-12-11T18:54:52.334Z,99170.22
2022-12-11T18:57:54.679Z,99181.97
2022-12-11T19:00:57.349Z,99179.78
2022-12-11T19:04:04.407Z,99182.53
2022-12-11T19:07:09.129Z,99180.91
2022-12-11T19:10:11.815Z,99194.25
2022-12-11T19:13:14.870Z,99203.28
2022-12-11T19:16:23.414Z,99201.37
2022-12-11T19:19:26.048Z,99198.63
2022-12-11T19:22:28.334Z,99203.59
2022-12-11T19:25:30.960Z,99191.75
2022-12-11T19:28:34.408Z,99196.97
2022-12-11T19:31:37.014Z,99207.69
2022-12-11T19:34:39.505Z,99201.41
2022-12-11T19:37:42.411Z,99213.72
2022-12-11T19:40:45.138Z,99198.34
2022-12-11T19:43:48.727Z,99204.41
2022-12-11T19:46:51.043Z,99207.72
2022-12-11T19:49:53.830Z,99201.44
2022-12-11T19:52:56.164Z,99207.75
2022-12-11T19:55:58.745Z,99207.16
2022-12-11T19:59:06.935Z,99213.72
2022-12-11T20:02:11.797Z,99229.28
2022-12-11T20:05:14.846Z,99218.59
2022-12-11T20:08:47.158Z,99226.81
2022-12-11T20:11:42.153Z,99221.63
2022-12-11T20:14:44.451Z,99221.34
2022-12-11T20:17:47.354Z,99226.22
2022-12-11T20:20:49.587Z,99241.28
2022-12-11T20:23:52.056Z,99231.97
2022-12-11T20:26:56.950Z,99230.38
2022-12-11T20:29:59.454Z,99236.66
2022-12-11T20:33:01.753Z,99232.56
2022-12-11T20:36:09.343Z,99234.97
2022-12-11T20:39:11.596Z,99234.41
2022-12-11T20:42:14.082Z,99236.56
2022-12-11T20:45:16.520Z,99241.25
2022-12-11T20:48:19.085Z,99242.28
2022-12-11T20:51:25.859Z,99245.03
2022-12-11T20:54:28.954Z,99239.63
2022-12-11T20:57:31.218Z,99245.63
2022-12-11T21:00:33.899Z,99253.47
2022-12-11T21:03:41.772Z,99240.28
2022-12-11T21:06:44.953Z,99243.62
2022-12-11T21:09:47.274Z,99250.16
2022-12-11T21:12:49.889Z,99258.97
2022-12-11T21:15:56.337Z,99257.47
2022-12-11T21:18:58.994Z,99264.00
2022-12-11T21:22:01.309Z,99257.69
2022-12-11T21:25:04.080Z,99270.34
2022-12-11T21:28:06.414Z,99268.56
2022-12-11T21:31:13.957Z,99282.81
2022-12-11T21:34:20.668Z,99289.56
2022-12-11T21:37:26.120Z,99283.63
2022-12-11T21:40:29.207Z,99292.06
2022-12-11T21:43:31.719Z,99288.56
2022-12-11T21:46:34.196Z,99303.56
2022-12-11T21:49:37.452Z,99296.56
2022-12-11T21:52:40.960Z,99298.53
2022-12-11T21:55:43.504Z,99299.91
2022-12-11T21:58:47.369Z,99298.16
2022-12-11T22:01:52.132Z,99306.16
2022-12-11T22:04:54.784Z,99315.81
2022-12-11T22:07:57.287Z,99313.56
2022-12-11T22:11:01.047Z,99312.75
2022-12-11T22:14:03.789Z,99310.88
2022-12-11T22:17:06.378Z,99330.37
2022-12-11T22:20:09.203Z,99325.47
2022-12-11T22:23:12.090Z,99320.31
2022-12-11T22:26:22.735Z,99327.09
2022-12-11T22:29:25.284Z,99327.16
2022-12-11T22:32:27.813Z,99330.03
2022-12-11T22:35:30.457Z,99316.94
2022-12-11T22:38:34.349Z,99316.28
2022-12-11T22:41:41.973Z,99331.84
2022-12-11T22:44:44.229Z,99316.28
2022-12-11T22:47:46.793Z,99305.25
2022-12-11T22:50:49.043Z,99322.72
2022-12-11T22:53:51.586Z,99323.78
2022-12-11T22:56:53.850Z,99324.69
2022-12-11T22:59:57.143Z,99324.53
2022-12-11T23:02:59.468Z,99334.16
2022-12-11T23:06:06.874Z,99325.06
2022-12-11T23:09:10.478Z,99327.25
2022-12-11T23:12:12.979Z,99331.81
2022-12-11T23:15:15.556Z,99337.44
2022-12-11T23:18:18.148Z,99345.84
2022-12-11T23:21:24.766Z,99341.53
2022-12-11T23:24:27.343Z,99330.00
2022-12-11T23:27:29.715Z,99347.94
2022-12-11T23:30:33.288Z,99342.69
2022-12-11T23:33:35.613Z,99341.44
2022-12-11T23:36:38.180Z,99332.16
2022-12-11T23:39:40.479Z,99342.16
2022-12-11T23:42:43.007Z,99345.44
2022-12-11T23:45:46.062Z,99344.41
2022-12-11T23:48:49.032Z,99345.37
2022-12-11T23:51:51.327Z,99331.72
2022-12-11T23:54:55.370Z,99335.22
2022-12-11T23:57:58.435Z,99347.59
